sensor_id;sensor_type;location;lat;lon;timestamp;temperature;humidity
80676;SHT30;70041;46.088;18.268;2023-09-19T00:00:46;23.37;67.31
80676;SHT30;70041;46.088;18.268;2023-09-19T00:03:12;23.33;67.50
80676;SHT30;70041;46.088;18.268;2023-09-19T00:05:38;23.30;67.63
80676;SHT30;70041;46.088;18.268;2023-09-19T00:08:05;23.23;67.82
80676;SHT30;70041;46.088;18.268;2023-09-19T00:10:33;23.20;67.97
80676;SHT30;70041;46.088;18.268;2023-09-19T00:13:04;23.11;68.38
80676;SHT30;70041;46.088;18.268;2023-09-19T00:15:38;23.07;68.87
80676;SHT30;70041;46.088;18.268;2023-09-19T00:18:05;23.00;69.04
80676;SHT30;70041;46.088;18.268;2023-09-19T00:20:37;22.92;69.40
80676;SHT30;70041;46.088;18.268;2023-09-19T00:23:04;22.87;69.50
80676;SHT30;70041;46.088;18.268;2023-09-19T00:25:29;22.82;69.85
80676;SHT30;70041;46.088;18.268;2023-09-19T00:27:55;22.83;69.71
80676;SHT30;70041;46.088;18.268;2023-09-19T00:30:20;22.77;69.95
80676;SHT30;70041;46.088;18.268;2023-09-19T00:32:47;22.77;69.93
80676;SHT30;70041;46.088;18.268;2023-09-19T00:35:14;22.76;70.70
80676;SHT30;70041;46.088;18.268;2023-09-19T00:37:40;22.72;70.38
80676;SHT30;70041;46.088;18.268;2023-09-19T00:40:07;22.74;70.19
80676;SHT30;70041;46.088;18.268;2023-09-19T00:42:40;22.69;70.33
80676;SHT30;70041;46.088;18.268;2023-09-19T00:45:07;22.74;70.21
80676;SHT30;70041;46.088;18.268;2023-09-19T00:47:36;22.73;70.38
80676;SHT30;70041;46.088;18.268;2023-09-19T00:50:04;22.73;70.26
80676;SHT30;70041;46.088;18.268;2023-09-19T00:52:33;22.70;70.39
80676;SHT30;70041;46.088;18.268;2023-09-19T00:54:58;22.67;70.49
80676;SHT30;70041;46.088;18.268;2023-09-19T00:57:25;22.62;70.69
80676;SHT30;70041;46.088;18.268;2023-09-19T00:59:53;22.57;70.97
80676;SHT30;70041;46.088;18.268;2023-09-19T01:02:20;22.53;71.02
80676;SHT30;70041;46.088;18.268;2023-09-19T01:04:47;22.55;71.00
80676;SHT30;70041;46.088;18.268;2023-09-19T01:07:13;22.52;71.14
80676;SHT30;70041;46.088;18.268;2023-09-19T01:09:41;22.46;71.24
80676;SHT30;70041;46.088;18.268;2023-09-19T01:12:06;22.46;71.43
80676;SHT30;70041;46.088;18.268;2023-09-19T01:17:07;22.49;71.23
80676;SHT30;70041;46.088;18.268;2023-09-19T01:20:09;22.43;71.47
80676;SHT30;70041;46.088;18.268;2023-09-19T01:23:16;22.42;71.53
80676;SHT30;70041;46.088;18.268;2023-09-19T01:28:45;22.43;71.53
80676;SHT30;70041;46.088;18.268;2023-09-19T01:31:21;22.39;71.59
80676;SHT30;70041;46.088;18.268;2023-09-19T01:36:22;22.31;71.93
80676;SHT30;70041;46.088;18.268;2023-09-19T01:38:50;22.31;71.97
80676;SHT30;70041;46.088;18.268;2023-09-19T01:41:21;22.29;72.02
80676;SHT30;70041;46.088;18.268;2023-09-19T01:43:51;22.21;72.18
80676;SHT30;70041;46.088;18.268;2023-09-19T01:46:25;22.23;72.08
80676;SHT30;70041;46.088;18.268;2023-09-19T01:49:28;22.35;71.72
80676;SHT30;70041;46.088;18.268;2023-09-19T01:52:09;22.35;71.71
80676;SHT30;70041;46.088;18.268;2023-09-19T01:54:46;22.29;71.81
80676;SHT30;70041;46.088;18.268;2023-09-19T01:57:35;22.29;71.76
80676;SHT30;70041;46.088;18.268;2023-09-19T02:00:07;22.32;71.79
80676;SHT30;70041;46.088;18.268;2023-09-19T02:02:36;22.26;71.92
80676;SHT30;70041;46.088;18.268;2023-09-19T02:05:03;22.31;71.67
80676;SHT30;70041;46.088;18.268;2023-09-19T02:07:29;22.36;71.63
80676;SHT30;70041;46.088;18.268;2023-09-19T02:09:56;22.31;71.82
80676;SHT30;70041;46.088;18.268;2023-09-19T02:12:22;22.21;72.05
80676;SHT30;70041;46.088;18.268;2023-09-19T02:14:48;22.16;72.34
80676;SHT30;70041;46.088;18.268;2023-09-19T02:17:13;22.11;72.54
80676;SHT30;70041;46.088;18.268;2023-09-19T02:19:38;22.02;72.95
80676;SHT30;70041;46.088;18.268;2023-09-19T02:22:05;21.94;72.92
80676;SHT30;70041;46.088;18.268;2023-09-19T02:24:33;21.95;72.56
80676;SHT30;70041;46.088;18.268;2023-09-19T02:26:58;21.90;72.73
80676;SHT30;70041;46.088;18.268;2023-09-19T02:29:25;21.84;72.84
80676;SHT30;70041;46.088;18.268;2023-09-19T02:31:52;21.71;73.03
80676;SHT30;70041;46.088;18.268;2023-09-19T02:34:18;21.77;72.92
80676;SHT30;70041;46.088;18.268;2023-09-19T02:36:44;21.77;73.03
80676;SHT30;70041;46.088;18.268;2023-09-19T02:39:10;21.74;72.50
80676;SHT30;70041;46.088;18.268;2023-09-19T02:41:36;21.70;72.93
80676;SHT30;70041;46.088;18.268;2023-09-19T02:44:02;21.62;73.34
80676;SHT30;70041;46.088;18.268;2023-09-19T02:46:27;21.60;73.52
80676;SHT30;70041;46.088;18.268;2023-09-19T02:48:53;21.60;73.60
80676;SHT30;70041;46.088;18.268;2023-09-19T02:51:20;21.53;73.93
80676;SHT30;70041;46.088;18.268;2023-09-19T02:53:45;21.47;74.10
80676;SHT30;70041;46.088;18.268;2023-09-19T02:56:13;21.51;74.03
80676;SHT30;70041;46.088;18.268;2023-09-19T02:58:39;21.51;74.11
80676;SHT30;70041;46.088;18.268;2023-09-19T03:01:08;21.54;74.11
80676;SHT30;70041;46.088;18.268;2023-09-19T03:03:34;21.47;74.16
80676;SHT30;70041;46.088;18.268;2023-09-19T03:05:59;21.46;74.17
80676;SHT30;70041;46.088;18.268;2023-09-19T03:08:29;21.40;74.34
80676;SHT30;70041;46.088;18.268;2023-09-19T03:10:54;21.33;74.66
80676;SHT30;70041;46.088;18.268;2023-09-19T03:13:20;21.31;74.79
80676;SHT30;70041;46.088;18.268;2023-09-19T03:15:45;21.37;74.48
80676;SHT30;70041;46.088;18.268;2023-09-19T03:18:12;21.33;74.56
80676;SHT30;70041;46.088;18.268;2023-09-19T03:20:38;21.20;74.89
80676;SHT30;70041;46.088;18.268;2023-09-19T03:23:04;21.06;75.49
80676;SHT30;70041;46.088;18.268;2023-09-19T03:25:30;21.02;75.77
80676;SHT30;70041;46.088;18.268;2023-09-19T03:27:56;20.90;75.94
80676;SHT30;70041;46.088;18.268;2023-09-19T03:30:23;20.95;75.77
80676;SHT30;70041;46.088;18.268;2023-09-19T03:32:49;20.88;75.92
80676;SHT30;70041;46.088;18.268;2023-09-19T03:35:15;20.85;76.28
80676;SHT30;70041;46.088;18.268;2023-09-19T03:37:41;20.89;75.68
80676;SHT30;70041;46.088;18.268;2023-09-19T03:40:08;20.82;76.43
80676;SHT30;70041;46.088;18.268;2023-09-19T03:42:38;20.76;76.54
80676;SHT30;70041;46.088;18.268;2023-09-19T03:45:04;20.72;76.91
80676;SHT30;70041;46.088;18.268;2023-09-19T03:47:31;20.71;77.20
80676;SHT30;70041;46.088;18.268;2023-09-19T03:49:57;20.58;77.57
80676;SHT30;70041;46.088;18.268;2023-09-19T03:52:22;20.56;77.21
80676;SHT30;70041;46.088;18.268;2023-09-19T03:54:48;20.53;77.23
80676;SHT30;70041;46.088;18.268;2023-09-19T03:57:14;20.58;76.84
80676;SHT30;70041;46.088;18.268;2023-09-19T03:59:42;20.47;77.20
80676;SHT30;70041;46.088;18.268;2023-09-19T04:02:11;20.34;77.64
80676;SHT30;70041;46.088;18.268;2023-09-19T04:04:47;20.39;78.01
80676;SHT30;70041;46.088;18.268;2023-09-19T04:07:13;20.24;78.41
80676;SHT30;70041;46.088;18.268;2023-09-19T04:09:38;20.18;78.60
80676;SHT30;70041;46.088;18.268;2023-09-19T04:12:04;20.15;78.82
80676;SHT30;70041;46.088;18.268;2023-09-19T04:14:30;20.14;79.19
80676;SHT30;70041;46.088;18.268;2023-09-19T04:16:55;20.15;79.07
80676;SHT30;70041;46.088;18.268;2023-09-19T04:19:20;20.14;79.00
80676;SHT30;70041;46.088;18.268;2023-09-19T04:21:47;20.21;78.34
80676;SHT30;70041;46.088;18.268;2023-09-19T04:24:13;20.21;78.10
80676;SHT30;70041;46.088;18.268;2023-09-19T04:26:39;20.27;77.70
80676;SHT30;70041;46.088;18.268;2023-09-19T04:29:04;20.31;77.49
80676;SHT30;70041;46.088;18.268;2023-09-19T04:31:31;20.39;77.01
80676;SHT30;70041;46.088;18.268;2023-09-19T04:33:57;20.51;76.58
80676;SHT30;70041;46.088;18.268;2023-09-19T04:36:24;20.39;77.09
80676;SHT30;70041;46.088;18.268;2023-09-19T04:38:49;20.38;77.11
80676;SHT30;70041;46.088;18.268;2023-09-19T04:41:15;20.39;77.04
80676;SHT30;70041;46.088;18.268;2023-09-19T04:43:40;20.37;77.03
80676;SHT30;70041;46.088;18.268;2023-09-19T04:46:06;20.29;77.51
80676;SHT30;70041;46.088;18.268;2023-09-19T04:48:32;20.27;77.47
80676;SHT30;70041;46.088;18.268;2023-09-19T04:50:59;20.29;77.10
80676;SHT30;70041;46.088;18.268;2023-09-19T04:53:25;20.37;76.82
80676;SHT30;70041;46.088;18.268;2023-09-19T04:55:53;20.45;76.55
80676;SHT30;70041;46.088;18.268;2023-09-19T04:58:21;20.56;76.18
80676;SHT30;70041;46.088;18.268;2023-09-19T05:00:46;20.80;75.38
80676;SHT30;70041;46.088;18.268;2023-09-19T05:03:11;20.89;75.04
80676;SHT30;70041;46.088;18.268;2023-09-19T05:05:37;21.00;74.69
80676;SHT30;70041;46.088;18.268;2023-09-19T05:08:04;21.10;74.39
80676;SHT30;70041;46.088;18.268;2023-09-19T05:10:32;21.17;74.22
80676;SHT30;70041;46.088;18.268;2023-09-19T05:12:57;21.27;73.80
80676;SHT30;70041;46.088;18.268;2023-09-19T05:15:22;21.33;73.76
80676;SHT30;70041;46.088;18.268;2023-09-19T05:17:49;21.33;73.81
80676;SHT30;70041;46.088;18.268;2023-09-19T05:20:20;21.43;73.30
80676;SHT30;70041;46.088;18.268;2023-09-19T05:23:06;21.43;73.55
80676;SHT30;70041;46.088;18.268;2023-09-19T05:25:38;21.37;74.02
80676;SHT30;70041;46.088;18.268;2023-09-19T05:28:09;21.43;73.95
80676;SHT30;70041;46.088;18.268;2023-09-19T05:30:35;21.41;73.98
80676;SHT30;70041;46.088;18.268;2023-09-19T05:33:02;21.41;73.99
80676;SHT30;70041;46.088;18.268;2023-09-19T05:35:29;21.47;73.67
80676;SHT30;70041;46.088;18.268;2023-09-19T05:37:54;21.47;74.13
80676;SHT30;70041;46.088;18.268;2023-09-19T05:40:21;21.49;74.07
80676;SHT30;70041;46.088;18.268;2023-09-19T05:42:47;21.51;73.79
80676;SHT30;70041;46.088;18.268;2023-09-19T05:45:13;21.57;74.20
80676;SHT30;70041;46.088;18.268;2023-09-19T05:47:42;21.70;73.88
80676;SHT30;70041;46.088;18.268;2023-09-19T05:50:11;21.75;73.34
80676;SHT30;70041;46.088;18.268;2023-09-19T05:52:37;21.91;72.96
80676;SHT30;70041;46.088;18.268;2023-09-19T05:55:05;22.01;72.80
80676;SHT30;70041;46.088;18.268;2023-09-19T05:57:35;22.08;72.15
80676;SHT30;70041;46.088;18.268;2023-09-19T06:00:01;22.05;72.36
80676;SHT30;70041;46.088;18.268;2023-09-19T06:02:26;22.04;72.24
80676;SHT30;70041;46.088;18.268;2023-09-19T06:04:54;22.04;72.54
80676;SHT30;70041;46.088;18.268;2023-09-19T06:07:24;22.08;72.09
80676;SHT30;70041;46.088;18.268;2023-09-19T06:09:52;21.97;72.45
80676;SHT30;70041;46.088;18.268;2023-09-19T06:12:19;21.94;72.80
80676;SHT30;70041;46.088;18.268;2023-09-19T06:14:44;21.85;73.53
80676;SHT30;70041;46.088;18.268;2023-09-19T06:17:10;21.70;74.87
80676;SHT30;70041;46.088;18.268;2023-09-19T06:19:35;21.11;77.27
80676;SHT30;70041;46.088;18.268;2023-09-19T06:22:01;20.69;79.89
80676;SHT30;70041;46.088;18.268;2023-09-19T06:24:27;20.53;80.78
80676;SHT30;70041;46.088;18.268;2023-09-19T06:26:53;20.61;78.94
80676;SHT30;70041;46.088;18.268;2023-09-19T06:29:20;20.75;77.17
80676;SHT30;70041;46.088;18.268;2023-09-19T06:31:46;20.76;77.07
80676;SHT30;70041;46.088;18.268;2023-09-19T06:34:12;20.78;77.58
80676;SHT30;70041;46.088;18.268;2023-09-19T06:36:39;20.65;77.65
80676;SHT30;70041;46.088;18.268;2023-09-19T06:39:06;20.51;78.22
80676;SHT30;70041;46.088;18.268;2023-09-19T06:41:32;20.44;77.86
80676;SHT30;70041;46.088;18.268;2023-09-19T06:43:57;20.45;77.90
80676;SHT30;70041;46.088;18.268;2023-09-19T06:46:23;20.35;77.56
80676;SHT30;70041;46.088;18.268;2023-09-19T06:48:48;20.29;77.77
80676;SHT30;70041;46.088;18.268;2023-09-19T06:51:14;20.28;77.64
80676;SHT30;70041;46.088;18.268;2023-09-19T06:53:41;20.31;77.73
80676;SHT30;70041;46.088;18.268;2023-09-19T06:56:07;20.28;76.84
80676;SHT30;70041;46.088;18.268;2023-09-19T06:58:32;20.21;77.09
80676;SHT30;70041;46.088;18.268;2023-09-19T07:00:58;20.15;77.21
80676;SHT30;70041;46.088;18.268;2023-09-19T07:03:23;20.17;76.95
80676;SHT30;70041;46.088;18.268;2023-09-19T07:05:51;20.04;77.12
80676;SHT30;70041;46.088;18.268;2023-09-19T07:08:18;19.98;77.42
80676;SHT30;70041;46.088;18.268;2023-09-19T07:10:44;20.06;77.04
80676;SHT30;70041;46.088;18.268;2023-09-19T07:13:14;20.07;77.24
80676;SHT30;70041;46.088;18.268;2023-09-19T07:15:42;20.11;76.98
80676;SHT30;70041;46.088;18.268;2023-09-19T07:18:15;20.11;77.27
80676;SHT30;70041;46.088;18.268;2023-09-19T07:20:42;20.17;76.25
80676;SHT30;70041;46.088;18.268;2023-09-19T07:23:15;20.29;75.48
80676;SHT30;70041;46.088;18.268;2023-09-19T07:25:41;20.39;75.13
80676;SHT30;70041;46.088;18.268;2023-09-19T07:28:06;20.38;74.37
80676;SHT30;70041;46.088;18.268;2023-09-19T07:30:35;20.37;73.40
80676;SHT30;70041;46.088;18.268;2023-09-19T07:33:02;20.44;73.35
80676;SHT30;70041;46.088;18.268;2023-09-19T07:35:28;20.55;72.08
80676;SHT30;70041;46.088;18.268;2023-09-19T07:37:53;20.48;71.89
80676;SHT30;70041;46.088;18.268;2023-09-19T07:40:19;20.42;71.54
80676;SHT30;70041;46.088;18.268;2023-09-19T07:42:45;20.34;71.42
80676;SHT30;70041;46.088;18.268;2023-09-19T07:45:12;20.28;71.39
80676;SHT30;70041;46.088;18.268;2023-09-19T07:47:45;20.25;71.53
80676;SHT30;70041;46.088;18.268;2023-09-19T07:50:13;20.17;72.19
80676;SHT30;70041;46.088;18.268;2023-09-19T07:52:38;20.21;71.90
80676;SHT30;70041;46.088;18.268;2023-09-19T07:55:06;20.17;72.40
80676;SHT30;70041;46.088;18.268;2023-09-19T07:57:36;20.25;72.31
80676;SHT30;70041;46.088;18.268;2023-09-19T08:00:03;20.37;72.32
80676;SHT30;70041;46.088;18.268;2023-09-19T08:02:36;20.34;72.23
80676;SHT30;70041;46.088;18.268;2023-09-19T08:05:04;20.32;72.25
80676;SHT30;70041;46.088;18.268;2023-09-19T08:07:32;20.31;72.00
80676;SHT30;70041;46.088;18.268;2023-09-19T08:09:58;20.14;72.79
80676;SHT30;70041;46.088;18.268;2023-09-19T08:12:24;20.15;73.25
80676;SHT30;70041;46.088;18.268;2023-09-19T08:14:49;20.21;72.93
80676;SHT30;70041;46.088;18.268;2023-09-19T08:17:15;20.29;72.88
80676;SHT30;70041;46.088;18.268;2023-09-19T08:19:41;20.27;72.83
80676;SHT30;70041;46.088;18.268;2023-09-19T08:22:07;20.41;72.92
80676;SHT30;70041;46.088;18.268;2023-09-19T08:24:35;20.61;72.32
80676;SHT30;70041;46.088;18.268;2023-09-19T08:27:01;20.58;72.43
80676;SHT30;70041;46.088;18.268;2023-09-19T08:29:30;20.61;72.52
80676;SHT30;70041;46.088;18.268;2023-09-19T08:31:58;20.85;71.93
80676;SHT30;70041;46.088;18.268;2023-09-19T08:34:24;20.92;70.69
80676;SHT30;70041;46.088;18.268;2023-09-19T08:36:51;20.92;70.29
80676;SHT30;70041;46.088;18.268;2023-09-19T08:39:18;20.93;70.48
80676;SHT30;70041;46.088;18.268;2023-09-19T08:41:44;20.86;70.47
80676;SHT30;70041;46.088;18.268;2023-09-19T08:44:10;20.78;71.06
80676;SHT30;70041;46.088;18.268;2023-09-19T08:46:37;20.72;70.89
80676;SHT30;70041;46.088;18.268;2023-09-19T08:49:33;20.68;71.73
80676;SHT30;70041;46.088;18.268;2023-09-19T08:52:06;20.79;70.90
80676;SHT30;70041;46.088;18.268;2023-09-19T08:54:37;21.06;70.45
80676;SHT30;70041;46.088;18.268;2023-09-19T08:57:07;21.23;69.31
80676;SHT30;70041;46.088;18.268;2023-09-19T08:59:47;21.37;69.40
80676;SHT30;70041;46.088;18.268;2023-09-19T09:02:15;21.53;68.73
80676;SHT30;70041;46.088;18.268;2023-09-19T09:04:41;21.60;68.42
80676;SHT30;70041;46.088;18.268;2023-09-19T09:07:13;21.64;68.00
80676;SHT30;70041;46.088;18.268;2023-09-19T09:09:39;21.78;67.52
80676;SHT30;70041;46.088;18.268;2023-09-19T09:12:13;21.80;67.20
80676;SHT30;70041;46.088;18.268;2023-09-19T09:14:47;21.71;66.60
80676;SHT30;70041;46.088;18.268;2023-09-19T09:17:15;21.88;66.30
80676;SHT30;70041;46.088;18.268;2023-09-19T09:19:41;22.11;65.60
80676;SHT30;70041;46.088;18.268;2023-09-19T09:22:08;22.32;64.78
80676;SHT30;70041;46.088;18.268;2023-09-19T09:24:34;22.77;63.41
80676;SHT30;70041;46.088;18.268;2023-09-19T09:27:04;23.20;62.84
80676;SHT30;70041;46.088;18.268;2023-09-19T09:29:48;23.24;61.16
80676;SHT30;70041;46.088;18.268;2023-09-19T09:32:27;23.25;61.42
80676;SHT30;70041;46.088;18.268;2023-09-19T09:34:59;23.20;61.34
80676;SHT30;70041;46.088;18.268;2023-09-19T09:37:26;23.07;61.25
80676;SHT30;70041;46.088;18.268;2023-09-19T09:39:59;23.04;60.84
80676;SHT30;70041;46.088;18.268;2023-09-19T09:42:43;22.94;61.91
80676;SHT30;70041;46.088;18.268;2023-09-19T09:45:19;22.80;61.07
80676;SHT30;70041;46.088;18.268;2023-09-19T09:47:54;23.06;60.55
80676;SHT30;70041;46.088;18.268;2023-09-19T09:50:33;23.13;59.99
80676;SHT30;70041;46.088;18.268;2023-09-19T09:53:18;23.31;59.70
80676;SHT30;70041;46.088;18.268;2023-09-19T09:56:03;23.18;59.85
80676;SHT30;70041;46.088;18.268;2023-09-19T09:58:52;22.96;60.78
80676;SHT30;70041;46.088;18.268;2023-09-19T10:01:20;22.77;61.71
80676;SHT30;70041;46.088;18.268;2023-09-19T10:03:46;22.52;62.95
80676;SHT30;70041;46.088;18.268;2023-09-19T10:06:17;22.32;64.30
80676;SHT30;70041;46.088;18.268;2023-09-19T10:09:02;22.00;66.80
80676;SHT30;70041;46.088;18.268;2023-09-19T10:11:47;21.64;69.49
80676;SHT30;70041;46.088;18.268;2023-09-19T10:14:20;21.39;70.64
80676;SHT30;70041;46.088;18.268;2023-09-19T10:16:49;21.31;71.13
80676;SHT30;70041;46.088;18.268;2023-09-19T10:19:20;21.27;70.96
80676;SHT30;70041;46.088;18.268;2023-09-19T10:21:49;21.33;72.15
80676;SHT30;70041;46.088;18.268;2023-09-19T10:24:15;21.60;69.63
80676;SHT30;70041;46.088;18.268;2023-09-19T10:26:43;21.92;69.64
80676;SHT30;70041;46.088;18.268;2023-09-19T10:29:13;22.15;68.35
80676;SHT30;70041;46.088;18.268;2023-09-19T10:31:39;22.38;67.22
80676;SHT30;70041;46.088;18.268;2023-09-19T10:34:08;22.51;65.15
80676;SHT30;70041;46.088;18.268;2023-09-19T10:36:36;22.63;64.53
80676;SHT30;70041;46.088;18.268;2023-09-19T10:39:04;23.03;62.92
80676;SHT30;70041;46.088;18.268;2023-09-19T10:41:32;23.50;60.97
80676;SHT30;70041;46.088;18.268;2023-09-19T10:44:03;23.98;60.69
80676;SHT30;70041;46.088;18.268;2023-09-19T10:46:31;23.69;59.88
80676;SHT30;70041;46.088;18.268;2023-09-19T10:48:59;23.40;61.36
80676;SHT30;70041;46.088;18.268;2023-09-19T10:51:28;23.23;61.27
80676;SHT30;70041;46.088;18.268;2023-09-19T10:54:15;23.11;60.73
80676;SHT30;70041;46.088;18.268;2023-09-19T10:56:44;22.93;60.71
80676;SHT30;70041;46.088;18.268;2023-09-19T10:59:15;22.92;61.29
80676;SHT30;70041;46.088;18.268;2023-09-19T11:01:54;22.80;60.90
80676;SHT30;70041;46.088;18.268;2023-09-19T11:04:31;22.70;61.57
80676;SHT30;70041;46.088;18.268;2023-09-19T11:07:08;22.77;62.03
80676;SHT30;70041;46.088;18.268;2023-09-19T11:14:58;23.14;61.83
80676;SHT30;70041;46.088;18.268;2023-09-19T11:17:40;23.33;59.53
80676;SHT30;70041;46.088;18.268;2023-09-19T11:30:32;23.90;58.64
80676;SHT30;70041;46.088;18.268;2023-09-19T11:33:17;24.40;57.63
80676;SHT30;70041;46.088;18.268;2023-09-19T11:36:12;24.49;56.31
80676;SHT30;70041;46.088;18.268;2023-09-19T11:46:51;24.78;54.14
80676;SHT30;70041;46.088;18.268;2023-09-19T11:49:18;24.78;54.33
80676;SHT30;70041;46.088;18.268;2023-09-19T11:51:50;24.74;53.75
80676;SHT30;70041;46.088;18.268;2023-09-19T11:54:17;24.71;53.16
80676;SHT30;70041;46.088;18.268;2023-09-19T11:56:51;24.81;52.81
80676;SHT30;70041;46.088;18.268;2023-09-19T11:59:24;25.11;52.84
80676;SHT30;70041;46.088;18.268;2023-09-19T12:01:55;25.21;51.81
80676;SHT30;70041;46.088;18.268;2023-09-19T12:04:36;25.43;52.57
80676;SHT30;70041;46.088;18.268;2023-09-19T12:07:11;25.59;52.75
80676;SHT30;70041;46.088;18.268;2023-09-19T12:09:49;25.43;52.24
80676;SHT30;70041;46.088;18.268;2023-09-19T12:12:26;25.55;51.87
80676;SHT30;70041;46.088;18.268;2023-09-19T12:14:57;25.62;51.37
80676;SHT30;70041;46.088;18.268;2023-09-19T12:17:23;25.63;51.33
80676;SHT30;70041;46.088;18.268;2023-09-19T12:19:56;25.89;52.54
80676;SHT30;70041;46.088;18.268;2023-09-19T12:22:22;25.94;49.32
80676;SHT30;70041;46.088;18.268;2023-09-19T12:24:47;26.03;49.47
80676;SHT30;70041;46.088;18.268;2023-09-19T12:27:14;26.30;48.75
80676;SHT30;70041;46.088;18.268;2023-09-19T12:29:44;26.44;48.57
80676;SHT30;70041;46.088;18.268;2023-09-19T12:32:09;26.30;49.47
80676;SHT30;70041;46.088;18.268;2023-09-19T12:34:36;26.17;50.03
80676;SHT30;70041;46.088;18.268;2023-09-19T12:37:14;26.09;50.59
80676;SHT30;70041;46.088;18.268;2023-09-19T12:40:10;25.92;50.98
80676;SHT30;70041;46.088;18.268;2023-09-19T12:42:48;25.97;51.04
80676;SHT30;70041;46.088;18.268;2023-09-19T12:45:15;26.10;50.21
80676;SHT30;70041;46.088;18.268;2023-09-19T12:51:08;26.51;47.82
80676;SHT30;70041;46.088;18.268;2023-09-19T12:53:40;26.52;48.36
80676;SHT30;70041;46.088;18.268;2023-09-19T12:56:08;26.68;46.78
80676;SHT30;70041;46.088;18.268;2023-09-19T12:58:48;26.70;46.68
80676;SHT30;70041;46.088;18.268;2023-09-19T13:01:15;26.70;47.43
80676;SHT30;70041;46.088;18.268;2023-09-19T13:03:41;26.71;46.67
80676;SHT30;70041;46.088;18.268;2023-09-19T13:06:07;26.72;46.40
80676;SHT30;70041;46.088;18.268;2023-09-19T13:08:37;26.54;47.45
80676;SHT30;70041;46.088;18.268;2023-09-19T13:13:33;26.52;47.11
80676;SHT30;70041;46.088;18.268;2023-09-19T13:15:59;26.54;48.10
80676;SHT30;70041;46.088;18.268;2023-09-19T13:18:27;26.52;47.49
80676;SHT30;70041;46.088;18.268;2023-09-19T13:21:12;26.51;47.54
80676;SHT30;70041;46.088;18.268;2023-09-19T13:23:48;26.33;47.92
80676;SHT30;70041;46.088;18.268;2023-09-19T13:26:14;26.44;48.51
80676;SHT30;70041;46.088;18.268;2023-09-19T13:28:40;26.34;48.48
80676;SHT30;70041;46.088;18.268;2023-09-19T13:31:05;26.57;48.52
80676;SHT30;70041;46.088;18.268;2023-09-19T13:33:33;26.80;47.61
80676;SHT30;70041;46.088;18.268;2023-09-19T13:35:58;26.70;48.25
80676;SHT30;70041;46.088;18.268;2023-09-19T13:38:24;26.61;48.80
80676;SHT30;70041;46.088;18.268;2023-09-19T13:40:49;26.51;48.90
80676;SHT30;70041;46.088;18.268;2023-09-19T13:43:17;26.43;49.44
80676;SHT30;70041;46.088;18.268;2023-09-19T13:45:43;26.57;48.91
80676;SHT30;70041;46.088;18.268;2023-09-19T13:48:08;26.64;48.84
80676;SHT30;70041;46.088;18.268;2023-09-19T13:50:40;26.71;48.85
80676;SHT30;70041;46.088;18.268;2023-09-19T13:53:09;26.48;49.31
80676;SHT30;70041;46.088;18.268;2023-09-19T13:55:34;26.50;49.55
80676;SHT30;70041;46.088;18.268;2023-09-19T13:58:00;26.54;49.47
80676;SHT30;70041;46.088;18.268;2023-09-19T14:00:25;26.52;50.10
80676;SHT30;70041;46.088;18.268;2023-09-19T14:02:51;26.48;49.71
80676;SHT30;70041;46.088;18.268;2023-09-19T14:05:17;26.68;49.90
80676;SHT30;70041;46.088;18.268;2023-09-19T14:07:43;26.57;50.38
80676;SHT30;70041;46.088;18.268;2023-09-19T14:10:10;26.44;50.45
80676;SHT30;70041;46.088;18.268;2023-09-19T14:12:38;26.61;49.04
80676;SHT30;70041;46.088;18.268;2023-09-19T14:15:08;26.78;48.37
80676;SHT30;70041;46.088;18.268;2023-09-19T14:17:34;26.90;48.32
80676;SHT30;70041;46.088;18.268;2023-09-19T14:19:59;27.16;48.34
80676;SHT30;70041;46.088;18.268;2023-09-19T14:22:25;27.57;46.37
80676;SHT30;70041;46.088;18.268;2023-09-19T14:24:50;27.97;45.29
80676;SHT30;70041;46.088;18.268;2023-09-19T14:27:16;28.76;43.70
80676;SHT30;70041;46.088;18.268;2023-09-19T14:29:42;29.37;42.18
80676;SHT30;70041;46.088;18.268;2023-09-19T14:32:07;29.67;41.16
80676;SHT30;70041;46.088;18.268;2023-09-19T14:34:33;30.12;40.40
80676;SHT30;70041;46.088;18.268;2023-09-19T14:36:58;29.31;42.44
80676;SHT30;70041;46.088;18.268;2023-09-19T14:39:24;28.72;43.83
80676;SHT30;70041;46.088;18.268;2023-09-19T14:41:50;28.17;45.28
80676;SHT30;70041;46.088;18.268;2023-09-19T14:44:16;27.67;46.34
80676;SHT30;70041;46.088;18.268;2023-09-19T14:46:42;27.43;47.33
80676;SHT30;70041;46.088;18.268;2023-09-19T14:49:09;27.36;47.08
80676;SHT30;70041;46.088;18.268;2023-09-19T14:51:35;27.66;46.36
80676;SHT30;70041;46.088;18.268;2023-09-19T14:54:03;28.20;45.67
80676;SHT30;70041;46.088;18.268;2023-09-19T14:56:29;28.34;45.14
80676;SHT30;70041;46.088;18.268;2023-09-19T14:58:56;28.18;45.52
80676;SHT30;70041;46.088;18.268;2023-09-19T15:01:21;27.98;46.34
80676;SHT30;70041;46.088;18.268;2023-09-19T15:03:47;27.70;46.72
80676;SHT30;70041;46.088;18.268;2023-09-19T15:06:15;27.47;46.62
80676;SHT30;70041;46.088;18.268;2023-09-19T15:08:43;26.96;48.40
80676;SHT30;70041;46.088;18.268;2023-09-19T15:11:18;26.62;49.06
80676;SHT30;70041;46.088;18.268;2023-09-19T15:13:46;26.58;48.60
80676;SHT30;70041;46.088;18.268;2023-09-19T15:16:11;26.58;48.58
80676;SHT30;70041;46.088;18.268;2023-09-19T15:18:40;26.51;48.79
80676;SHT30;70041;46.088;18.268;2023-09-19T15:21:08;26.24;49.65
80676;SHT30;70041;46.088;18.268;2023-09-19T15:23:34;26.04;49.65
80676;SHT30;70041;46.088;18.268;2023-09-19T15:26:01;25.92;50.80
80676;SHT30;70041;46.088;18.268;2023-09-19T15:28:27;25.82;50.84
80676;SHT30;70041;46.088;18.268;2023-09-19T15:31:01;25.59;51.65
80676;SHT30;70041;46.088;18.268;2023-09-19T15:33:27;25.27;52.71
80676;SHT30;70041;46.088;18.268;2023-09-19T15:36:07;25.11;53.41
80676;SHT30;70041;46.088;18.268;2023-09-19T15:41:32;24.99;53.59
80676;SHT30;70041;46.088;18.268;2023-09-19T15:43:59;24.91;53.84
80676;SHT30;70041;46.088;18.268;2023-09-19T15:46:26;24.74;54.71
80676;SHT30;70041;46.088;18.268;2023-09-19T15:48:53;24.67;54.69
80676;SHT30;70041;46.088;18.268;2023-09-19T15:51:18;24.61;55.11
80676;SHT30;70041;46.088;18.268;2023-09-19T15:53:46;24.52;54.31
80676;SHT30;70041;46.088;18.268;2023-09-19T15:56:15;24.50;55.03
80676;SHT30;70041;46.088;18.268;2023-09-19T15:58:47;24.41;54.92
80676;SHT30;70041;46.088;18.268;2023-09-19T16:01:14;24.39;54.85
80676;SHT30;70041;46.088;18.268;2023-09-19T16:03:44;24.25;55.56
80676;SHT30;70041;46.088;18.268;2023-09-19T16:06:11;24.17;54.93